Bookmark and Share
Track history (hours):
 

Norient Star

Last reported at 2014-Apr-20 18:21 UTC. Time now 2014-Apr-24 11:07 UTC.
Position N 41°43' E 012°11'.

Length 180 m; draft 10 m.

Type: Ship. MMSI: 249434000.

NotesDate/timePositionNaut miles runAvg speedWind from/ knotsBaromVisibWave heightAir tempDewpointWater temp
2014-Apr-20 18:21N 41°43' E 012°11'212 6.1
2014-Apr-19 07:33N 38°49' E 009°31'1212.3
2014-Apr-19 06:33N 38°45' E 009°16'1212.4
2014-Apr-19 05:33N 38°42' E 009°01'1212.3
2014-Apr-19 04:34N 38°38' E 008°46'29212.7
2014-Apr-18 05:32N 37°24' E 002°46'1212.2
2014-Apr-18 04:33N 37°21' E 002°32'1312.8
2014-Apr-18 03:33N 37°18' E 002°16'1312.8
2014-Apr-18 02:33N 37°15' E 002°01'1313.0
2014-Apr-18 01:33N 37°12' E 001°45'1312.4
2014-Apr-18 00:32N 37°08' E 001°30'1412.6
2014-Apr-17 23:23N 37°05' E 001°12'1011.4
2014-Apr-17 22:32N 37°02' E 001°01'1212.0
2014-Apr-17 21:33N 36°59' E 000°46'1812.1
2014-Apr-17 20:05N 36°55' E 000°25'3112.2
2014-Apr-17 17:31N 36°47' W 000°13'24612.3
2014-Apr-16 21:34N 35°58' W 005°12'7 6.8
2014-Apr-16 20:31N 35°55' W 005°20'0 0.1
2014-Apr-16 19:33N 35°55' W 005°20'0 0.0
2014-Apr-16 18:33N 35°55' W 005°20'0 0.2
2014-Apr-16 17:31N 35°55' W 005°20'0 0.0
2014-Apr-16 16:33N 35°55' W 005°20'0 0.0
2014-Apr-16 15:33N 35°55' W 005°20'0 0.0
2014-Apr-16 14:34N 35°55' W 005°20'1 1.2
2014-Apr-16 13:34N 35°56' W 005°20'2411.8
2014-Apr-16 11:32N 35°53' W 005°49'  
2014-Apr-10 21:16N 33°47' W 007°23'0 0.0
2014-Apr-10 19:31N 33°47' W 007°23'  

Dump ship's entire track history

sailing weather and tide predictions

Norient Star — 9HRV9 — position and weather